sensor_id;sensor_type;location;lat;lon;timestamp;P1;durP1;ratioP1;P2;durP2;ratioP2
20908;SDS011;10614;53.198;6.570;2023-05-25T00:00:40;10.25;;;4.35;;
20908;SDS011;10614;53.198;6.570;2023-05-25T00:02:45;12.10;;;4.97;;
20908;SDS011;10614;53.198;6.570;2023-05-25T00:04:47;12.65;;;4.28;;
20908;SDS011;10614;53.198;6.570;2023-05-25T00:06:51;9.60;;;5.07;;
20908;SDS011;10614;53.198;6.570;2023-05-25T00:08:55;9.68;;;4.80;;
20908;SDS011;10614;53.198;6.570;2023-05-25T00:10:57;7.57;;;4.20;;
20908;SDS011;10614;53.198;6.570;2023-05-25T00:13:00;8.77;;;3.95;;
20908;SDS011;10614;53.198;6.570;2023-05-25T00:15:02;8.30;;;4.20;;
20908;SDS011;10614;53.198;6.570;2023-05-25T00:17:05;11.45;;;5.13;;
20908;SDS011;10614;53.198;6.570;2023-05-25T00:19:09;9.30;;;4.25;;
20908;SDS011;10614;53.198;6.570;2023-05-25T00:21:11;11.32;;;4.63;;
20908;SDS011;10614;53.198;6.570;2023-05-25T00:23:14;10.65;;;5.28;;
20908;SDS011;10614;53.198;6.570;2023-05-25T00:25:16;8.32;;;4.03;;
20908;SDS011;10614;53.198;6.570;2023-05-25T00:27:20;10.32;;;4.18;;
20908;SDS011;10614;53.198;6.570;2023-05-25T00:29:22;8.63;;;3.90;;
20908;SDS011;10614;53.198;6.570;2023-05-25T00:31:25;9.00;;;4.47;;
20908;SDS011;10614;53.198;6.570;2023-05-25T00:33:27;10.50;;;4.53;;
20908;SDS011;10614;53.198;6.570;2023-05-25T00:35:28;8.52;;;4.45;;
20908;SDS011;10614;53.198;6.570;2023-05-25T00:37:30;11.63;;;5.18;;
20908;SDS011;10614;53.198;6.570;2023-05-25T00:39:33;13.23;;;5.40;;
20908;SDS011;10614;53.198;6.570;2023-05-25T00:41:35;12.05;;;4.90;;
20908;SDS011;10614;53.198;6.570;2023-05-25T00:43:40;11.65;;;5.30;;
20908;SDS011;10614;53.198;6.570;2023-05-25T00:45:42;15.18;;;5.70;;
20908;SDS011;10614;53.198;6.570;2023-05-25T00:47:43;11.23;;;5.35;;
20908;SDS011;10614;53.198;6.570;2023-05-25T00:49:49;10.35;;;5.22;;
20908;SDS011;10614;53.198;6.570;2023-05-25T00:51:51;17.13;;;6.55;;
20908;SDS011;10614;53.198;6.570;2023-05-25T00:53:53;13.80;;;6.03;;
20908;SDS011;10614;53.198;6.570;2023-05-25T00:55:58;19.70;;;6.18;;
20908;SDS011;10614;53.198;6.570;2023-05-25T00:58:05;17.63;;;6.57;;
20908;SDS011;10614;53.198;6.570;2023-05-25T01:00:07;16.08;;;6.40;;
20908;SDS011;10614;53.198;6.570;2023-05-25T01:02:11;13.98;;;6.05;;
20908;SDS011;10614;53.198;6.570;2023-05-25T01:04:16;11.25;;;5.68;;
20908;SDS011;10614;53.198;6.570;2023-05-25T01:06:21;12.52;;;5.45;;
20908;SDS011;10614;53.198;6.570;2023-05-25T01:08:26;16.63;;;6.65;;
20908;SDS011;10614;53.198;6.570;2023-05-25T01:10:30;15.18;;;7.13;;
20908;SDS011;10614;53.198;6.570;2023-05-25T01:12:35;11.07;;;5.97;;
20908;SDS011;10614;53.198;6.570;2023-05-25T01:14:38;16.20;;;6.93;;
20908;SDS011;10614;53.198;6.570;2023-05-25T01:16:40;10.98;;;5.55;;
20908;SDS011;10614;53.198;6.570;2023-05-25T01:18:43;10.50;;;5.15;;
20908;SDS011;10614;53.198;6.570;2023-05-25T01:21:02;12.48;;;5.07;;
20908;SDS011;10614;53.198;6.570;2023-05-25T01:25:18;9.73;;;4.95;;
20908;SDS011;10614;53.198;6.570;2023-05-25T01:27:28;13.40;;;5.85;;
20908;SDS011;10614;53.198;6.570;2023-05-25T01:29:33;13.30;;;5.63;;
20908;SDS011;10614;53.198;6.570;2023-05-25T01:31:36;14.88;;;6.13;;
20908;SDS011;10614;53.198;6.570;2023-05-25T01:33:39;15.45;;;7.00;;
20908;SDS011;10614;53.198;6.570;2023-05-25T01:35:43;13.63;;;5.63;;
20908;SDS011;10614;53.198;6.570;2023-05-25T01:37:47;10.93;;;5.50;;
20908;SDS011;10614;53.198;6.570;2023-05-25T01:39:52;13.93;;;6.80;;
20908;SDS011;10614;53.198;6.570;2023-05-25T01:41:55;13.02;;;5.75;;
20908;SDS011;10614;53.198;6.570;2023-05-25T01:43:57;11.90;;;6.05;;
20908;SDS011;10614;53.198;6.570;2023-05-25T01:46:01;13.93;;;6.20;;
20908;SDS011;10614;53.198;6.570;2023-05-25T01:48:13;13.32;;;6.22;;
20908;SDS011;10614;53.198;6.570;2023-05-25T01:50:21;14.20;;;6.82;;
20908;SDS011;10614;53.198;6.570;2023-05-25T01:52:27;14.50;;;6.40;;
20908;SDS011;10614;53.198;6.570;2023-05-25T01:54:35;15.88;;;6.60;;
20908;SDS011;10614;53.198;6.570;2023-05-25T01:56:41;12.23;;;6.30;;
20908;SDS011;10614;53.198;6.570;2023-05-25T01:58:45;16.00;;;7.75;;
20908;SDS011;10614;53.198;6.570;2023-05-25T02:02:52;12.13;;;6.88;;
20908;SDS011;10614;53.198;6.570;2023-05-25T02:04:55;14.73;;;5.97;;
20908;SDS011;10614;53.198;6.570;2023-05-25T02:06:57;10.98;;;6.82;;
20908;SDS011;10614;53.198;6.570;2023-05-25T02:08:59;13.75;;;7.43;;
20908;SDS011;10614;53.198;6.570;2023-05-25T02:11:11;10.88;;;6.10;;
20908;SDS011;10614;53.198;6.570;2023-05-25T02:13:13;12.38;;;6.00;;
20908;SDS011;10614;53.198;6.570;2023-05-25T02:15:15;12.95;;;5.65;;
20908;SDS011;10614;53.198;6.570;2023-05-25T02:17:18;12.68;;;6.15;;
20908;SDS011;10614;53.198;6.570;2023-05-25T02:19:20;11.23;;;5.50;;
20908;SDS011;10614;53.198;6.570;2023-05-25T02:21:21;11.30;;;5.50;;
20908;SDS011;10614;53.198;6.570;2023-05-25T02:23:23;10.90;;;5.47;;
20908;SDS011;10614;53.198;6.570;2023-05-25T02:25:29;10.50;;;5.05;;
20908;SDS011;10614;53.198;6.570;2023-05-25T02:27:32;8.73;;;4.60;;
20908;SDS011;10614;53.198;6.570;2023-05-25T02:29:37;12.02;;;4.90;;
20908;SDS011;10614;53.198;6.570;2023-05-25T02:31:40;14.15;;;5.95;;
20908;SDS011;10614;53.198;6.570;2023-05-25T02:33:45;14.10;;;6.15;;
20908;SDS011;10614;53.198;6.570;2023-05-25T02:35:48;9.40;;;5.18;;
20908;SDS011;10614;53.198;6.570;2023-05-25T02:37:50;10.05;;;5.32;;
20908;SDS011;10614;53.198;6.570;2023-05-25T02:39:52;9.45;;;4.95;;
20908;SDS011;10614;53.198;6.570;2023-05-25T02:41:54;8.60;;;4.75;;
20908;SDS011;10614;53.198;6.570;2023-05-25T02:43:58;9.73;;;4.68;;
20908;SDS011;10614;53.198;6.570;2023-05-25T02:45:59;9.82;;;4.88;;
20908;SDS011;10614;53.198;6.570;2023-05-25T02:48:02;7.97;;;4.32;;
20908;SDS011;10614;53.198;6.570;2023-05-25T02:50:05;9.82;;;5.25;;
20908;SDS011;10614;53.198;6.570;2023-05-25T02:52:07;11.63;;;5.47;;
20908;SDS011;10614;53.198;6.570;2023-05-25T02:54:09;10.43;;;5.70;;
20908;SDS011;10614;53.198;6.570;2023-05-25T02:56:11;9.30;;;5.15;;
20908;SDS011;10614;53.198;6.570;2023-05-25T02:58:19;11.70;;;6.00;;
20908;SDS011;10614;53.198;6.570;2023-05-25T03:00:26;12.77;;;5.72;;
20908;SDS011;10614;53.198;6.570;2023-05-25T03:02:27;13.07;;;6.00;;
20908;SDS011;10614;53.198;6.570;2023-05-25T03:04:29;10.55;;;5.63;;
20908;SDS011;10614;53.198;6.570;2023-05-25T03:06:33;9.30;;;5.50;;
20908;SDS011;10614;53.198;6.570;2023-05-25T03:08:37;9.18;;;4.82;;
20908;SDS011;10614;53.198;6.570;2023-05-25T03:10:39;9.27;;;4.97;;
20908;SDS011;10614;53.198;6.570;2023-05-25T03:12:41;9.60;;;5.00;;
20908;SDS011;10614;53.198;6.570;2023-05-25T03:14:42;8.30;;;5.32;;
20908;SDS011;10614;53.198;6.570;2023-05-25T03:16:46;8.55;;;4.90;;
20908;SDS011;10614;53.198;6.570;2023-05-25T03:18:48;8.38;;;4.50;;
20908;SDS011;10614;53.198;6.570;2023-05-25T03:20:50;7.90;;;4.45;;
20908;SDS011;10614;53.198;6.570;2023-05-25T03:22:51;9.48;;;5.00;;
20908;SDS011;10614;53.198;6.570;2023-05-25T03:24:53;10.13;;;5.13;;
20908;SDS011;10614;53.198;6.570;2023-05-25T03:26:55;11.35;;;5.68;;
20908;SDS011;10614;53.198;6.570;2023-05-25T03:28:57;12.98;;;4.80;;
20908;SDS011;10614;53.198;6.570;2023-05-25T03:30:59;9.90;;;5.03;;
20908;SDS011;10614;53.198;6.570;2023-05-25T03:33:04;8.02;;;4.93;;
20908;SDS011;10614;53.198;6.570;2023-05-25T03:35:06;9.55;;;5.03;;
20908;SDS011;10614;53.198;6.570;2023-05-25T03:37:08;11.68;;;4.90;;
20908;SDS011;10614;53.198;6.570;2023-05-25T03:39:10;6.95;;;4.20;;
20908;SDS011;10614;53.198;6.570;2023-05-25T03:41:12;9.63;;;4.55;;
20908;SDS011;10614;53.198;6.570;2023-05-25T03:43:14;10.48;;;6.18;;
20908;SDS011;10614;53.198;6.570;2023-05-25T03:45:16;14.68;;;7.30;;
20908;SDS011;10614;53.198;6.570;2023-05-25T03:47:17;12.43;;;6.13;;
20908;SDS011;10614;53.198;6.570;2023-05-25T03:49:21;12.73;;;6.35;;
20908;SDS011;10614;53.198;6.570;2023-05-25T03:51:23;12.50;;;5.72;;
20908;SDS011;10614;53.198;6.570;2023-05-25T03:53:24;11.23;;;5.22;;
20908;SDS011;10614;53.198;6.570;2023-05-25T03:55:26;8.98;;;5.05;;
20908;SDS011;10614;53.198;6.570;2023-05-25T03:57:28;9.73;;;4.97;;
20908;SDS011;10614;53.198;6.570;2023-05-25T03:59:30;10.70;;;5.20;;
20908;SDS011;10614;53.198;6.570;2023-05-25T04:01:32;10.65;;;5.60;;
20908;SDS011;10614;53.198;6.570;2023-05-25T04:03:37;9.88;;;5.40;;
20908;SDS011;10614;53.198;6.570;2023-05-25T04:05:40;11.98;;;5.78;;
20908;SDS011;10614;53.198;6.570;2023-05-25T04:07:44;12.05;;;6.28;;
20908;SDS011;10614;53.198;6.570;2023-05-25T04:09:46;16.20;;;7.00;;
20908;SDS011;10614;53.198;6.570;2023-05-25T04:11:49;17.02;;;8.13;;
20908;SDS011;10614;53.198;6.570;2023-05-25T04:13:51;18.92;;;9.18;;
20908;SDS011;10614;53.198;6.570;2023-05-25T04:15:54;15.80;;;8.55;;
20908;SDS011;10614;53.198;6.570;2023-05-25T04:17:56;16.90;;;8.68;;
20908;SDS011;10614;53.198;6.570;2023-05-25T04:20:02;19.83;;;8.57;;
20908;SDS011;10614;53.198;6.570;2023-05-25T04:22:09;24.73;;;9.98;;
20908;SDS011;10614;53.198;6.570;2023-05-25T04:24:11;20.45;;;9.95;;
20908;SDS011;10614;53.198;6.570;2023-05-25T04:26:13;19.33;;;9.15;;
20908;SDS011;10614;53.198;6.570;2023-05-25T04:28:15;26.27;;;12.65;;
20908;SDS011;10614;53.198;6.570;2023-05-25T04:30:18;22.63;;;10.57;;
20908;SDS011;10614;53.198;6.570;2023-05-25T04:32:22;22.17;;;11.02;;
20908;SDS011;10614;53.198;6.570;2023-05-25T04:34:24;19.73;;;10.88;;
20908;SDS011;10614;53.198;6.570;2023-05-25T04:36:26;22.35;;;10.93;;
20908;SDS011;10614;53.198;6.570;2023-05-25T04:40:37;19.48;;;10.52;;
20908;SDS011;10614;53.198;6.570;2023-05-25T04:42:41;32.85;;;11.68;;
20908;SDS011;10614;53.198;6.570;2023-05-25T04:44:47;24.20;;;11.13;;
20908;SDS011;10614;53.198;6.570;2023-05-25T04:47:01;20.17;;;10.70;;
20908;SDS011;10614;53.198;6.570;2023-05-25T04:49:03;24.52;;;12.05;;
20908;SDS011;10614;53.198;6.570;2023-05-25T04:51:07;24.25;;;11.90;;
20908;SDS011;10614;53.198;6.570;2023-05-25T04:53:09;23.92;;;11.30;;
20908;SDS011;10614;53.198;6.570;2023-05-25T04:55:13;20.92;;;9.63;;
20908;SDS011;10614;53.198;6.570;2023-05-25T04:57:16;27.02;;;11.82;;
20908;SDS011;10614;53.198;6.570;2023-05-25T04:59:21;21.10;;;10.30;;
20908;SDS011;10614;53.198;6.570;2023-05-25T05:01:24;17.45;;;9.63;;
20908;SDS011;10614;53.198;6.570;2023-05-25T05:03:28;22.83;;;10.52;;
20908;SDS011;10614;53.198;6.570;2023-05-25T05:05:29;24.42;;;10.57;;
20908;SDS011;10614;53.198;6.570;2023-05-25T05:07:33;28.35;;;10.90;;
20908;SDS011;10614;53.198;6.570;2023-05-25T05:09:36;21.13;;;9.90;;
20908;SDS011;10614;53.198;6.570;2023-05-25T05:13:46;24.63;;;10.60;;
20908;SDS011;10614;53.198;6.570;2023-05-25T05:15:48;23.15;;;10.25;;
20908;SDS011;10614;53.198;6.570;2023-05-25T05:17:50;19.75;;;9.05;;
20908;SDS011;10614;53.198;6.570;2023-05-25T05:19:55;21.92;;;9.27;;
20908;SDS011;10614;53.198;6.570;2023-05-25T05:21:57;18.17;;;8.48;;
20908;SDS011;10614;53.198;6.570;2023-05-25T05:24:00;18.70;;;8.40;;
20908;SDS011;10614;53.198;6.570;2023-05-25T05:26:02;18.60;;;8.57;;
20908;SDS011;10614;53.198;6.570;2023-05-25T05:28:08;18.08;;;7.88;;
20908;SDS011;10614;53.198;6.570;2023-05-25T05:30:11;18.52;;;7.90;;
20908;SDS011;10614;53.198;6.570;2023-05-25T05:32:13;19.40;;;8.75;;
20908;SDS011;10614;53.198;6.570;2023-05-25T05:34:15;16.63;;;6.97;;
20908;SDS011;10614;53.198;6.570;2023-05-25T05:36:18;16.92;;;7.50;;
20908;SDS011;10614;53.198;6.570;2023-05-25T05:38:20;19.83;;;8.07;;
20908;SDS011;10614;53.198;6.570;2023-05-25T05:40:24;17.20;;;6.97;;
20908;SDS011;10614;53.198;6.570;2023-05-25T05:42:27;14.67;;;6.80;;
20908;SDS011;10614;53.198;6.570;2023-05-25T05:44:30;13.82;;;6.97;;
20908;SDS011;10614;53.198;6.570;2023-05-25T05:46:34;14.00;;;6.05;;
20908;SDS011;10614;53.198;6.570;2023-05-25T05:48:36;16.42;;;7.63;;
20908;SDS011;10614;53.198;6.570;2023-05-25T05:50:38;18.63;;;7.25;;
20908;SDS011;10614;53.198;6.570;2023-05-25T05:52:40;14.77;;;6.65;;
20908;SDS011;10614;53.198;6.570;2023-05-25T05:54:42;17.38;;;6.80;;
20908;SDS011;10614;53.198;6.570;2023-05-25T05:56:44;12.00;;;5.82;;
20908;SDS011;10614;53.198;6.570;2023-05-25T05:58:47;18.50;;;6.22;;
20908;SDS011;10614;53.198;6.570;2023-05-25T06:00:58;16.13;;;6.22;;
20908;SDS011;10614;53.198;6.570;2023-05-25T06:03:03;15.65;;;5.35;;
20908;SDS011;10614;53.198;6.570;2023-05-25T06:05:05;16.65;;;5.75;;
20908;SDS011;10614;53.198;6.570;2023-05-25T06:07:10;16.08;;;5.07;;
20908;SDS011;10614;53.198;6.570;2023-05-25T06:09:12;15.35;;;4.40;;
20908;SDS011;10614;53.198;6.570;2023-05-25T06:11:14;14.18;;;5.68;;
20908;SDS011;10614;53.198;6.570;2023-05-25T06:13:17;16.10;;;4.72;;
20908;SDS011;10614;53.198;6.570;2023-05-25T06:15:19;13.80;;;4.43;;
20908;SDS011;10614;53.198;6.570;2023-05-25T06:17:23;14.63;;;4.20;;
20908;SDS011;10614;53.198;6.570;2023-05-25T06:19:25;10.87;;;3.40;;
20908;SDS011;10614;53.198;6.570;2023-05-25T06:21:27;12.23;;;3.92;;
20908;SDS011;10614;53.198;6.570;2023-05-25T06:23:29;13.38;;;4.07;;
20908;SDS011;10614;53.198;6.570;2023-05-25T06:25:31;10.35;;;3.50;;
20908;SDS011;10614;53.198;6.570;2023-05-25T06:27:33;12.80;;;4.00;;
20908;SDS011;10614;53.198;6.570;2023-05-25T06:29:36;15.38;;;4.47;;
20908;SDS011;10614;53.198;6.570;2023-05-25T06:31:41;18.35;;;4.95;;
20908;SDS011;10614;53.198;6.570;2023-05-25T06:35:46;16.10;;;4.53;;
20908;SDS011;10614;53.198;6.570;2023-05-25T06:37:49;16.67;;;4.00;;
20908;SDS011;10614;53.198;6.570;2023-05-25T06:39:53;20.50;;;5.32;;
20908;SDS011;10614;53.198;6.570;2023-05-25T06:41:55;18.15;;;4.57;;
20908;SDS011;10614;53.198;6.570;2023-05-25T06:43:58;14.65;;;4.15;;
20908;SDS011;10614;53.198;6.570;2023-05-25T06:46:00;18.00;;;4.55;;
20908;SDS011;10614;53.198;6.570;2023-05-25T06:48:03;15.55;;;4.40;;
20908;SDS011;10614;53.198;6.570;2023-05-25T06:50:16;16.90;;;4.65;;
20908;SDS011;10614;53.198;6.570;2023-05-25T06:52:18;17.70;;;4.18;;
20908;SDS011;10614;53.198;6.570;2023-05-25T06:54:20;15.85;;;4.65;;
20908;SDS011;10614;53.198;6.570;2023-05-25T06:56:23;14.90;;;4.50;;
20908;SDS011;10614;53.198;6.570;2023-05-25T06:58:27;19.17;;;5.57;;
20908;SDS011;10614;53.198;6.570;2023-05-25T07:00:45;16.67;;;4.22;;
20908;SDS011;10614;53.198;6.570;2023-05-25T07:02:47;18.15;;;4.40;;
20908;SDS011;10614;53.198;6.570;2023-05-25T07:04:54;14.80;;;3.88;;
20908;SDS011;10614;53.198;6.570;2023-05-25T07:06:58;15.05;;;4.35;;
20908;SDS011;10614;53.198;6.570;2023-05-25T07:09:09;14.90;;;4.60;;
20908;SDS011;10614;53.198;6.570;2023-05-25T07:11:11;18.10;;;4.20;;
20908;SDS011;10614;53.198;6.570;2023-05-25T07:13:13;20.70;;;5.28;;
20908;SDS011;10614;53.198;6.570;2023-05-25T07:15:16;16.05;;;4.60;;
20908;SDS011;10614;53.198;6.570;2023-05-25T07:17:20;18.38;;;4.80;;
20908;SDS011;10614;53.198;6.570;2023-05-25T07:19:23;18.42;;;4.45;;
20908;SDS011;10614;53.198;6.570;2023-05-25T07:21:25;17.98;;;4.75;;
20908;SDS011;10614;53.198;6.570;2023-05-25T07:23:34;16.75;;;4.40;;
20908;SDS011;10614;53.198;6.570;2023-05-25T07:29:59;21.95;;;5.55;;
20908;SDS011;10614;53.198;6.570;2023-05-25T07:34:18;19.23;;;4.82;;
20908;SDS011;10614;53.198;6.570;2023-05-25T07:36:22;17.10;;;4.43;;
20908;SDS011;10614;53.198;6.570;2023-05-25T07:38:26;17.90;;;4.38;;
20908;SDS011;10614;53.198;6.570;2023-05-25T07:40:29;18.40;;;4.45;;
20908;SDS011;10614;53.198;6.570;2023-05-25T07:42:31;16.92;;;4.50;;
20908;SDS011;10614;53.198;6.570;2023-05-25T07:44:34;16.52;;;4.35;;
20908;SDS011;10614;53.198;6.570;2023-05-25T07:46:36;20.83;;;5.18;;
20908;SDS011;10614;53.198;6.570;2023-05-25T07:48:38;17.73;;;4.40;;
20908;SDS011;10614;53.198;6.570;2023-05-25T07:50:41;17.27;;;4.55;;
20908;SDS011;10614;53.198;6.570;2023-05-25T07:52:43;15.25;;;4.18;;
20908;SDS011;10614;53.198;6.570;2023-05-25T07:54:47;22.02;;;4.78;;
20908;SDS011;10614;53.198;6.570;2023-05-25T07:56:53;19.73;;;5.18;;
20908;SDS011;10614;53.198;6.570;2023-05-25T07:58:55;22.13;;;5.63;;
20908;SDS011;10614;53.198;6.570;2023-05-25T08:03:02;24.75;;;5.32;;
20908;SDS011;10614;53.198;6.570;2023-05-25T08:05:05;18.85;;;4.03;;
20908;SDS011;10614;53.198;6.570;2023-05-25T08:09:11;20.10;;;5.22;;
20908;SDS011;10614;53.198;6.570;2023-05-25T08:11:13;24.08;;;5.05;;
20908;SDS011;10614;53.198;6.570;2023-05-25T08:13:19;18.98;;;4.43;;
20908;SDS011;10614;53.198;6.570;2023-05-25T08:15:22;16.00;;;4.47;;
20908;SDS011;10614;53.198;6.570;2023-05-25T08:17:24;21.90;;;4.65;;
20908;SDS011;10614;53.198;6.570;2023-05-25T08:19:25;23.42;;;4.88;;
20908;SDS011;10614;53.198;6.570;2023-05-25T08:21:33;20.42;;;4.70;;
20908;SDS011;10614;53.198;6.570;2023-05-25T08:23:36;21.98;;;5.28;;
20908;SDS011;10614;53.198;6.570;2023-05-25T08:27:44;32.20;;;5.72;;
20908;SDS011;10614;53.198;6.570;2023-05-25T08:29:50;25.40;;;5.80;;
20908;SDS011;10614;53.198;6.570;2023-05-25T08:31:52;20.50;;;5.20;;
20908;SDS011;10614;53.198;6.570;2023-05-25T08:33:54;22.45;;;4.90;;
20908;SDS011;10614;53.198;6.570;2023-05-25T08:35:56;18.42;;;4.72;;
20908;SDS011;10614;53.198;6.570;2023-05-25T08:38:01;20.00;;;5.25;;
20908;SDS011;10614;53.198;6.570;2023-05-25T08:40:03;19.83;;;4.82;;
20908;SDS011;10614;53.198;6.570;2023-05-25T08:42:08;16.67;;;4.28;;
20908;SDS011;10614;53.198;6.570;2023-05-25T08:44:10;25.73;;;5.72;;
20908;SDS011;10614;53.198;6.570;2023-05-25T08:46:17;17.63;;;4.18;;
20908;SDS011;10614;53.198;6.570;2023-05-25T08:48:31;18.52;;;4.57;;
20908;SDS011;10614;53.198;6.570;2023-05-25T08:50:53;15.87;;;4.33;;
20908;SDS011;10614;53.198;6.570;2023-05-25T08:52:58;18.00;;;4.70;;
20908;SDS011;10614;53.198;6.570;2023-05-25T08:55:05;25.30;;;5.60;;
20908;SDS011;10614;53.198;6.570;2023-05-25T08:57:09;23.00;;;5.07;;
20908;SDS011;10614;53.198;6.570;2023-05-25T08:59:19;18.33;;;4.68;;
20908;SDS011;10614;53.198;6.570;2023-05-25T09:01:28;33.40;;;6.43;;
20908;SDS011;10614;53.198;6.570;2023-05-25T09:03:38;20.42;;;4.80;;
20908;SDS011;10614;53.198;6.570;2023-05-25T09:05:42;19.55;;;5.07;;
20908;SDS011;10614;53.198;6.570;2023-05-25T09:07:45;18.40;;;4.10;;
20908;SDS011;10614;53.198;6.570;2023-05-25T09:09:47;18.02;;;4.28;;
20908;SDS011;10614;53.198;6.570;2023-05-25T09:11:51;16.27;;;4.60;;
20908;SDS011;10614;53.198;6.570;2023-05-25T09:13:56;15.27;;;4.30;;
20908;SDS011;10614;53.198;6.570;2023-05-25T09:15:58;15.63;;;4.15;;
20908;SDS011;10614;53.198;6.570;2023-05-25T09:18:02;15.20;;;4.28;;
20908;SDS011;10614;53.198;6.570;2023-05-25T09:20:06;22.88;;;4.57;;
20908;SDS011;10614;53.198;6.570;2023-05-25T09:22:11;20.65;;;4.45;;
20908;SDS011;10614;53.198;6.570;2023-05-25T09:24:14;16.00;;;4.57;;
20908;SDS011;10614;53.198;6.570;2023-05-25T09:26:16;26.38;;;4.93;;
20908;SDS011;10614;53.198;6.570;2023-05-25T09:28:18;20.45;;;4.45;;
20908;SDS011;10614;53.198;6.570;2023-05-25T09:30:22;22.80;;;4.95;;
20908;SDS011;10614;53.198;6.570;2023-05-25T09:32:24;27.42;;;5.57;;
20908;SDS011;10614;53.198;6.570;2023-05-25T09:36:34;15.68;;;4.85;;
20908;SDS011;10614;53.198;6.570;2023-05-25T09:38:40;15.65;;;3.97;;
20908;SDS011;10614;53.198;6.570;2023-05-25T09:40:42;17.77;;;4.95;;
20908;SDS011;10614;53.198;6.570;2023-05-25T09:42:45;20.70;;;4.80;;
20908;SDS011;10614;53.198;6.570;2023-05-25T09:44:48;20.60;;;4.80;;
20908;SDS011;10614;53.198;6.570;2023-05-25T09:46:50;24.95;;;4.90;;
20908;SDS011;10614;53.198;6.570;2023-05-25T09:48:53;21.90;;;5.20;;
20908;SDS011;10614;53.198;6.570;2023-05-25T09:50:57;20.10;;;4.40;;
20908;SDS011;10614;53.198;6.570;2023-05-25T09:53:00;16.77;;;5.00;;
20908;SDS011;10614;53.198;6.570;2023-05-25T09:55:03;29.38;;;6.20;;
20908;SDS011;10614;53.198;6.570;2023-05-25T09:57:09;30.10;;;5.75;;
20908;SDS011;10614;53.198;6.570;2023-05-25T09:59:11;27.67;;;5.20;;
20908;SDS011;10614;53.198;6.570;2023-05-25T10:01:13;27.88;;;5.28;;
20908;SDS011;10614;53.198;6.570;2023-05-25T10:03:15;13.70;;;4.47;;
20908;SDS011;10614;53.198;6.570;2023-05-25T10:05:17;26.23;;;5.28;;
20908;SDS011;10614;53.198;6.570;2023-05-25T10:07:22;21.10;;;4.88;;
20908;SDS011;10614;53.198;6.570;2023-05-25T10:09:26;24.13;;;5.32;;
20908;SDS011;10614;53.198;6.570;2023-05-25T10:11:30;23.00;;;5.32;;
20908;SDS011;10614;53.198;6.570;2023-05-25T10:13:33;26.75;;;5.82;;
20908;SDS011;10614;53.198;6.570;2023-05-25T10:15:37;21.35;;;5.30;;
20908;SDS011;10614;53.198;6.570;2023-05-25T10:17:50;20.88;;;5.20;;
20908;SDS011;10614;53.198;6.570;2023-05-25T10:19:56;23.83;;;6.75;;
20908;SDS011;10614;53.198;6.570;2023-05-25T10:22:07;18.75;;;5.13;;
20908;SDS011;10614;53.198;6.570;2023-05-25T10:24:20;26.50;;;5.43;;
20908;SDS011;10614;53.198;6.570;2023-05-25T10:26:25;16.27;;;4.55;;
20908;SDS011;10614;53.198;6.570;2023-05-25T10:30:35;28.52;;;6.78;;
20908;SDS011;10614;53.198;6.570;2023-05-25T10:32:39;23.17;;;5.15;;
20908;SDS011;10614;53.198;6.570;2023-05-25T10:34:43;27.00;;;5.97;;
20908;SDS011;10614;53.198;6.570;2023-05-25T10:36:45;16.98;;;4.93;;
20908;SDS011;10614;53.198;6.570;2023-05-25T10:38:49;25.65;;;5.40;;
20908;SDS011;10614;53.198;6.570;2023-05-25T10:40:53;22.52;;;5.88;;
20908;SDS011;10614;53.198;6.570;2023-05-25T10:42:56;20.27;;;5.43;;
20908;SDS011;10614;53.198;6.570;2023-05-25T10:44:58;21.98;;;4.60;;
20908;SDS011;10614;53.198;6.570;2023-05-25T10:47:01;28.90;;;5.93;;
20908;SDS011;10614;53.198;6.570;2023-05-25T10:49:03;24.15;;;4.88;;
20908;SDS011;10614;53.198;6.570;2023-05-25T10:51:05;26.77;;;5.32;;
20908;SDS011;10614;53.198;6.570;2023-05-25T10:53:10;18.95;;;4.68;;
20908;SDS011;10614;53.198;6.570;2023-05-25T10:55:15;18.23;;;5.07;;
20908;SDS011;10614;53.198;6.570;2023-05-25T10:57:19;21.88;;;5.00;;
20908;SDS011;10614;53.198;6.570;2023-05-25T10:59:24;15.43;;;4.22;;
20908;SDS011;10614;53.198;6.570;2023-05-25T11:01:29;13.45;;;4.18;;
20908;SDS011;10614;53.198;6.570;2023-05-25T11:03:49;14.77;;;4.22;;
20908;SDS011;10614;53.198;6.570;2023-05-25T11:05:55;16.27;;;4.78;;
20908;SDS011;10614;53.198;6.570;2023-05-25T11:07:57;14.77;;;4.15;;
20908;SDS011;10614;53.198;6.570;2023-05-25T11:09:59;22.48;;;5.32;;
20908;SDS011;10614;53.198;6.570;2023-05-25T11:12:01;19.75;;;4.68;;
20908;SDS011;10614;53.198;6.570;2023-05-25T11:14:07;23.00;;;5.45;;
20908;SDS011;10614;53.198;6.570;2023-05-25T11:16:30;18.65;;;4.65;;
20908;SDS011;10614;53.198;6.570;2023-05-25T11:18:38;18.80;;;4.82;;
20908;SDS011;10614;53.198;6.570;2023-05-25T11:20:42;17.98;;;4.90;;
20908;SDS011;10614;53.198;6.570;2023-05-25T11:22:45;13.07;;;4.68;;
20908;SDS011;10614;53.198;6.570;2023-05-25T11:24:50;17.83;;;4.70;;
20908;SDS011;10614;53.198;6.570;2023-05-25T11:26:56;16.83;;;4.78;;
20908;SDS011;10614;53.198;6.570;2023-05-25T11:29:01;16.58;;;4.32;;
20908;SDS011;10614;53.198;6.570;2023-05-25T11:31:15;19.95;;;4.18;;
20908;SDS011;10614;53.198;6.570;2023-05-25T11:33:19;23.27;;;5.22;;
20908;SDS011;10614;53.198;6.570;2023-05-25T11:35:23;22.80;;;4.95;;
20908;SDS011;10614;53.198;6.570;2023-05-25T11:37:26;20.92;;;5.32;;
20908;SDS011;10614;53.198;6.570;2023-05-25T11:39:30;26.80;;;5.57;;
20908;SDS011;10614;53.198;6.570;2023-05-25T11:41:32;22.83;;;5.75;;
20908;SDS011;10614;53.198;6.570;2023-05-25T11:43:35;22.20;;;5.18;;
20908;SDS011;10614;53.198;6.570;2023-05-25T11:45:39;22.65;;;5.38;;
20908;SDS011;10614;53.198;6.570;2023-05-25T11:47:41;20.05;;;5.57;;
20908;SDS011;10614;53.198;6.570;2023-05-25T11:49:44;20.48;;;4.70;;
20908;SDS011;10614;53.198;6.570;2023-05-25T11:51:48;22.27;;;5.65;;
20908;SDS011;10614;53.198;6.570;2023-05-25T11:53:51;18.65;;;4.57;;
20908;SDS011;10614;53.198;6.570;2023-05-25T11:55:53;13.60;;;4.30;;
20908;SDS011;10614;53.198;6.570;2023-05-25T11:57:55;18.70;;;5.03;;
20908;SDS011;10614;53.198;6.570;2023-05-25T11:59:58;19.15;;;5.18;;
20908;SDS011;10614;53.198;6.570;2023-05-25T12:02:07;20.38;;;5.57;;
20908;SDS011;10614;53.198;6.570;2023-05-25T12:04:09;16.83;;;4.47;;
20908;SDS011;10614;53.198;6.570;2023-05-25T12:06:23;23.07;;;5.17;;
20908;SDS011;10614;53.198;6.570;2023-05-25T12:08:32;17.70;;;5.13;;
20908;SDS011;10614;53.198;6.570;2023-05-25T12:10:37;18.77;;;5.63;;
20908;SDS011;10614;53.198;6.570;2023-05-25T12:12:52;20.20;;;5.60;;
20908;SDS011;10614;53.198;6.570;2023-05-25T12:14:57;15.30;;;4.75;;
20908;SDS011;10614;53.198;6.570;2023-05-25T12:16:59;19.33;;;5.18;;
20908;SDS011;10614;53.198;6.570;2023-05-25T12:19:03;23.52;;;5.72;;
20908;SDS011;10614;53.198;6.570;2023-05-25T12:21:05;24.00;;;5.30;;
20908;SDS011;10614;53.198;6.570;2023-05-25T12:23:10;19.17;;;5.32;;
20908;SDS011;10614;53.198;6.570;2023-05-25T12:25:13;18.55;;;4.95;;
20908;SDS011;10614;53.198;6.570;2023-05-25T12:27:19;19.98;;;5.25;;
20908;SDS011;10614;53.198;6.570;2023-05-25T12:29:22;17.00;;;4.50;;
20908;SDS011;10614;53.198;6.570;2023-05-25T12:31:25;18.92;;;4.63;;
20908;SDS011;10614;53.198;6.570;2023-05-25T12:33:28;21.83;;;5.15;;
20908;SDS011;10614;53.198;6.570;2023-05-25T12:35:42;18.90;;;5.10;;
20908;SDS011;10614;53.198;6.570;2023-05-25T12:37:45;28.17;;;5.50;;
20908;SDS011;10614;53.198;6.570;2023-05-25T12:39:47;22.00;;;5.07;;
20908;SDS011;10614;53.198;6.570;2023-05-25T12:41:50;21.15;;;5.63;;
20908;SDS011;10614;53.198;6.570;2023-05-25T12:43:53;18.27;;;4.82;;